Terminal Aerodrome Forecast
Issued by NWS Wilmington, OH

Current Version | Previous Version | Text Only | Print | Product List | Glossary On
Versions: 1 2 3 4 5 6 7 8 9 10 11 12 13 14 15 16 17 18 19 20 21 22 23 24 25 26
000
FTUS41 KILN 291417 AAA
TAFCVG
TAF AMD
KCVG 291417Z 2914/3018 20008KT P6SM SCT060
     FM291600 21008KT P6SM VCSH BKN040
     FM300000 18004KT P6SM VCSH SCT035 OVC150
     FM301400 22006KT P6SM VCSH SCT030 BKN080=

USA.gov is the U.S. government's official web portal to all federal, state and local government web resources and services.